Time,TemperatureF,DewpointF,PressureIn,WindDirection,WindDirectionDegrees,WindSpeedMPH,WindSpeedGustMPH,Humidity,HourlyPrecipIn,Conditions,Clouds,dailyrainin,SolarRadiationWatts/m^2,SoftwareType,DateUTC
2013-01-31 04:22:00,65.0,65.0,-100.00,NE,43,6.0,13.0,99,0.00,,,-99.99,0.000000,,2013-01-31 14:22:00,
2013-01-31 04:31:00,65.0,65.0,-100.00,NE,43,6.0,13.0,99,0.00,,,-99.99,0.000000,,2013-01-31 14:31:00,
2013-01-31 04:42:00,65.0,65.0,-100.00,NE,43,6.0,13.0,99,0.00,,,-99.99,0.000000,,2013-01-31 14:42:00,
2013-01-31 04:52:00,65.0,65.0,-100.00,NE,43,6.0,13.0,99,0.00,,,-99.99,0.000000,,2013-01-31 14:52:00,
2013-01-31 05:22:00,63.0,62.0,-100.00,NE,34,5.0,14.0,97,0.00,,,0.58,0.000000,,2013-01-31 15:22:00,
2013-01-31 05:32:00,63.0,62.0,-100.00,NE,34,5.0,14.0,97,0.00,,,0.58,0.000000,,2013-01-31 15:32:00,
2013-01-31 05:42:00,63.0,62.0,-100.00,NE,34,5.0,14.0,97,0.00,,,0.58,0.000000,,2013-01-31 15:42:00,
2013-01-31 05:51:00,63.0,62.0,-100.00,NE,34,5.0,14.0,97,0.00,,,0.58,0.000000,,2013-01-31 15:51:00,
2013-01-31 06:21:00,64.0,63.0,-100.00,NE,55,6.0,15.0,95,0.00,,,0.58,0.000000,,2013-01-31 16:21:00,
2013-01-31 06:32:00,64.0,63.0,-100.00,NE,55,6.0,15.0,95,0.00,,,0.58,0.000000,,2013-01-31 16:32:00,
2013-01-31 06:41:00,64.0,63.0,-100.00,NE,55,6.0,15.0,95,0.00,,,0.58,0.000000,,2013-01-31 16:41:00,
2013-01-31 06:51:00,64.0,63.0,-100.00,NE,55,6.0,15.0,95,0.00,,,0.58,0.000000,,2013-01-31 16:51:00,
2013-01-31 07:22:00,65.0,64.0,-100.00,NE,52,4.0,11.0,98,0.00,,,0.58,0.000000,,2013-01-31 17:22:00,
2013-01-31 07:32:00,65.0,64.0,-100.00,NE,52,4.0,11.0,98,0.00,,,0.58,0.000000,,2013-01-31 17:32:00,
2013-01-31 07:43:00,65.0,64.0,-100.00,NE,52,4.0,11.0,98,0.00,,,0.58,0.000000,,2013-01-31 17:43:00,
2013-01-31 07:53:00,65.0,64.0,-100.00,NE,52,4.0,11.0,98,0.00,,,0.58,0.000000,,2013-01-31 17:53:00,
2013-01-31 08:21:00,65.0,65.0,-100.00,NE,40,4.0,6.0,100,0.01,,,0.59,11.000000,,2013-01-31 18:21:00,
2013-01-31 08:32:00,65.0,65.0,-100.00,NE,40,4.0,6.0,100,0.01,,,0.59,11.000000,,2013-01-31 18:32:00,
2013-01-31 08:42:00,65.0,65.0,-100.00,NE,40,4.0,6.0,100,0.01,,,0.59,11.000000,,2013-01-31 18:42:00,
2013-01-31 08:52:00,65.0,65.0,-100.00,NE,40,4.0,6.0,100,0.01,,,0.59,11.000000,,2013-01-31 18:52:00,
2013-01-31 09:21:00,67.0,65.0,-100.00,NE,42,5.0,10.0,94,0.00,,,0.59,92.000000,,2013-01-31 19:21:00,
2013-01-31 09:32:00,67.0,65.0,-100.00,NE,42,5.0,10.0,94,0.00,,,0.59,92.000000,,2013-01-31 19:32:00,
2013-01-31 09:42:00,67.0,65.0,-100.00,NE,42,5.0,10.0,94,0.00,,,0.59,92.000000,,2013-01-31 19:42:00,
2013-01-31 09:51:00,67.0,65.0,-100.00,NE,42,5.0,10.0,94,0.00,,,0.59,92.000000,,2013-01-31 19:51:00,
2013-01-31 10:21:00,72.0,67.0,-100.00,NE,37,6.0,12.0,85,0.00,,,0.59,256.000000,,2013-01-31 20:21:00,
2013-01-31 10:31:00,72.0,67.0,-100.00,NE,37,6.0,12.0,85,0.00,,,0.59,256.000000,,2013-01-31 20:31:00,
2013-01-31 10:42:00,72.0,67.0,-100.00,NE,37,6.0,12.0,85,0.00,,,0.59,256.000000,,2013-01-31 20:42:00,
2013-01-31 10:52:00,72.0,67.0,-100.00,NE,37,6.0,12.0,85,0.00,,,0.59,256.000000,,2013-01-31 20:52:00,
2013-01-31 11:21:00,71.0,64.0,-100.00,NE,56,8.0,17.0,78,0.00,,,0.59,633.000000,,2013-01-31 21:21:00,
2013-01-31 11:31:00,71.0,64.0,-100.00,NE,56,8.0,17.0,78,0.00,,,0.59,633.000000,,2013-01-31 21:31:00,
2013-01-31 11:42:00,71.0,64.0,-100.00,NE,56,8.0,17.0,78,0.00,,,0.59,633.000000,,2013-01-31 21:42:00,
2013-01-31 11:52:00,71.0,64.0,-100.00,NE,56,8.0,17.0,78,0.00,,,0.59,633.000000,,2013-01-31 21:52:00,
2013-01-31 12:22:00,74.0,64.0,-100.00,NE,54,10.0,18.0,72,0.00,,,0.59,889.000000,,2013-01-31 22:22:00,
2013-01-31 12:32:00,74.0,64.0,-100.00,NE,54,10.0,18.0,72,0.00,,,0.59,889.000000,,2013-01-31 22:32:00,
2013-01-31 12:42:00,74.0,64.0,-100.00,NE,54,10.0,18.0,72,0.00,,,0.59,889.000000,,2013-01-31 22:42:00,
2013-01-31 12:51:00,74.0,64.0,-100.00,NE,54,10.0,18.0,72,0.00,,,0.59,889.000000,,2013-01-31 22:51:00,
2013-01-31 13:21:00,76.0,66.0,-100.00,NE,52,10.0,21.0,72,0.00,,,0.59,1011.000000,,2013-01-31 23:21:00,
2013-01-31 13:31:00,76.0,66.0,-100.00,NE,52,10.0,21.0,72,0.00,,,0.59,1011.000000,,2013-01-31 23:31:00,
2013-01-31 13:41:00,76.0,66.0,-100.00,NE,52,10.0,21.0,72,0.00,,,0.59,1011.000000,,2013-01-31 23:41:00,
2013-01-31 13:52:00,76.0,66.0,-100.00,NE,52,10.0,21.0,72,0.00,,,0.59,1011.000000,,2013-01-31 23:52:00,
2013-01-31 14:21:00,76.0,66.0,-100.00,ENE,60,9.0,20.0,71,0.00,,,0.47,955.000000,,2013-02-01 00:21:00,
2013-01-31 14:31:00,76.0,66.0,-100.00,ENE,60,9.0,20.0,71,0.00,,,0.47,955.000000,,2013-02-01 00:31:00,
2013-01-31 14:42:00,76.0,66.0,-100.00,ENE,60,9.0,20.0,71,0.00,,,0.47,955.000000,,2013-02-01 00:42:00,
2013-01-31 14:51:00,76.0,66.0,-100.00,ENE,60,9.0,20.0,71,0.00,,,0.47,955.000000,,2013-02-01 00:51:00,
2013-01-31 15:21:00,75.0,64.0,-100.00,ENE,59,10.0,21.0,69,0.00,,,0.06,811.000000,,2013-02-01 01:21:00,
2013-01-31 15:31:00,75.0,64.0,-100.00,ENE,59,10.0,21.0,69,0.00,,,0.06,811.000000,,2013-02-01 01:31:00,
2013-01-31 15:41:00,75.0,64.0,-100.00,ENE,59,10.0,21.0,69,0.00,,,0.06,811.000000,,2013-02-01 01:41:00,
2013-01-31 15:51:00,75.0,64.0,-100.00,ENE,59,10.0,21.0,69,0.00,,,0.06,811.000000,,2013-02-01 01:51:00,
2013-01-31 16:21:00,75.0,65.0,-100.00,NE,53,8.0,24.0,71,0.00,,,0.01,660.000000,,2013-02-01 02:21:00,
2013-01-31 16:31:00,75.0,65.0,-100.00,NE,53,8.0,24.0,71,0.00,,,0.01,660.000000,,2013-02-01 02:31:00,
2013-01-31 16:41:00,75.0,65.0,-100.00,NE,53,8.0,24.0,71,0.00,,,0.01,660.000000,,2013-02-01 02:41:00,
2013-01-31 16:52:00,75.0,65.0,-100.00,NE,53,8.0,24.0,71,0.00,,,0.01,660.000000,,2013-02-01 02:52:00,
2013-01-31 17:12:00,72.0,63.0,-100.00,NE,51,6.0,17.0,74,0.00,,,0.01,473.000000,,2013-02-01 03:12:00,
2013-01-31 17:21:00,72.0,63.0,-100.00,NE,51,6.0,17.0,74,0.00,,,0.01,473.000000,,2013-02-01 03:21:00,
2013-01-31 17:32:00,72.0,63.0,-100.00,NE,51,6.0,17.0,74,0.00,,,0.01,473.000000,,2013-02-01 03:32:00,
2013-01-31 17:41:00,72.0,63.0,-100.00,NE,51,6.0,17.0,74,0.00,,,0.01,473.000000,,2013-02-01 03:41:00,
2013-01-31 17:51:00,72.0,63.0,-100.00,NE,51,6.0,17.0,74,0.00,,,0.01,473.000000,,2013-02-01 03:51:00,
2013-01-31 18:21:00,68.0,63.0,-100.00,NE,56,7.0,17.0,83,0.00,,,0.01,210.000000,,2013-02-01 04:21:00,
2013-01-31 18:31:00,68.0,63.0,-100.00,NE,56,7.0,17.0,83,0.00,,,0.01,210.000000,,2013-02-01 04:31:00,
2013-01-31 18:41:00,68.0,63.0,-100.00,NE,56,7.0,17.0,83,0.00,,,0.01,210.000000,,2013-02-01 04:41:00,
2013-01-31 18:51:00,68.0,63.0,-100.00,NE,56,7.0,17.0,83,0.00,,,0.01,210.000000,,2013-02-01 04:51:00,
2013-01-31 19:22:00,67.0,64.0,-100.00,NE,50,8.0,19.0,91,0.00,,,0.01,13.000000,,2013-02-01 05:22:00,
2013-01-31 19:31:00,67.0,64.0,-100.00,NE,50,8.0,19.0,91,0.00,,,0.01,13.000000,,2013-02-01 05:31:00,
2013-01-31 19:41:00,67.0,64.0,-100.00,NE,50,8.0,19.0,91,0.00,,,0.01,13.000000,,2013-02-01 05:41:00,
2013-01-31 19:52:00,67.0,64.0,-100.00,NE,50,8.0,19.0,91,0.00,,,0.01,13.000000,,2013-02-01 05:52:00,
2013-01-31 20:21:00,67.0,64.0,-100.00,ENE,58,4.0,15.0,90,0.01,,,0.02,0.000000,,2013-02-01 06:21:00,
2013-01-31 20:32:00,67.0,64.0,-100.00,ENE,58,4.0,15.0,90,0.01,,,0.02,0.000000,,2013-02-01 06:32:00,
2013-01-31 20:41:00,67.0,64.0,-100.00,ENE,58,4.0,15.0,90,0.01,,,0.02,0.000000,,2013-02-01 06:41:00,
2013-01-31 20:52:00,67.0,64.0,-100.00,ENE,58,4.0,15.0,90,0.01,,,0.02,0.000000,,2013-02-01 06:52:00,
2013-01-31 21:22:00,67.0,63.0,-100.00,NNE,31,3.0,8.0,88,0.00,,,0.02,0.000000,,2013-02-01 07:22:00,
2013-01-31 21:32:00,67.0,63.0,-100.00,NNE,31,3.0,8.0,88,0.00,,,0.02,0.000000,,2013-02-01 07:32:00,
2013-01-31 21:41:00,67.0,63.0,-100.00,NNE,31,3.0,8.0,88,0.00,,,0.02,0.000000,,2013-02-01 07:41:00,
2013-01-31 21:51:00,67.0,63.0,-100.00,NNE,31,3.0,8.0,88,0.00,,,0.02,0.000000,,2013-02-01 07:51:00,
2013-01-31 22:21:00,65.0,62.0,-100.00,North,7,2.0,10.0,91,0.00,,,0.02,0.000000,,2013-02-01 08:21:00,
2013-01-31 22:31:00,65.0,62.0,-100.00,North,7,2.0,10.0,91,0.00,,,0.02,0.000000,,2013-02-01 08:31:00,
2013-01-31 22:42:00,65.0,62.0,-100.00,North,7,2.0,10.0,91,0.00,,,0.02,0.000000,,2013-02-01 08:42:00,
2013-01-31 22:52:00,65.0,62.0,-100.00,North,7,2.0,10.0,91,0.00,,,0.02,0.000000,,2013-02-01 08:52:00,
2013-01-31 23:21:00,64.0,63.0,-100.00,NE,41,4.0,12.0,95,0.00,,,0.02,0.000000,,2013-02-01 09:21:00,
2013-01-31 23:32:00,64.0,63.0,-100.00,NE,41,4.0,12.0,95,0.00,,,0.02,0.000000,,2013-02-01 09:32:00,
2013-01-31 23:41:00,64.0,63.0,-100.00,NE,41,4.0,12.0,95,0.00,,,0.02,0.000000,,2013-02-01 09:41:00,
2013-01-31 23:51:00,64.0,63.0,-100.00,NE,41,4.0,12.0,95,0.00,,,0.02,0.000000,,2013-02-01 09:51:00,